sensor_id;sensor_type;location;lat;lon;timestamp;P1;durP1;ratioP1;P2;durP2;ratioP2
23236;SDS011;11787;52.018;8.570;2024-02-21T05:58:32;13.77;;;5.05;;
23236;SDS011;11787;52.018;8.570;2024-02-21T06:00:58;16.52;;;5.57;;
23236;SDS011;11787;52.018;8.570;2024-02-21T06:03:23;9.27;;;5.03;;
23236;SDS011;11787;52.018;8.570;2024-02-21T06:05:49;8.38;;;4.72;;
23236;SDS011;11787;52.018;8.570;2024-02-21T06:08:15;15.07;;;5.32;;
23236;SDS011;11787;52.018;8.570;2024-02-21T06:10:40;10.82;;;5.45;;
23236;SDS011;11787;52.018;8.570;2024-02-21T06:13:06;9.93;;;5.03;;
23236;SDS011;11787;52.018;8.570;2024-02-21T06:15:31;12.57;;;5.10;;
23236;SDS011;11787;52.018;8.570;2024-02-21T06:17:57;18.33;;;5.07;;
23236;SDS011;11787;52.018;8.570;2024-02-21T06:20:22;11.48;;;5.72;;
23236;SDS011;11787;52.018;8.570;2024-02-21T06:22:48;12.43;;;5.60;;
23236;SDS011;11787;52.018;8.570;2024-02-21T06:25:13;14.95;;;6.28;;
23236;SDS011;11787;52.018;8.570;2024-02-21T06:27:39;21.83;;;6.63;;
23236;SDS011;11787;52.018;8.570;2024-02-21T06:30:05;11.75;;;6.13;;
23236;SDS011;11787;52.018;8.570;2024-02-21T06:32:31;15.23;;;6.78;;
23236;SDS011;11787;52.018;8.570;2024-02-21T06:34:56;15.80;;;5.88;;
23236;SDS011;11787;52.018;8.570;2024-02-21T06:37:22;15.30;;;5.47;;
23236;SDS011;11787;52.018;8.570;2024-02-21T06:39:47;10.40;;;5.25;;
23236;SDS011;11787;52.018;8.570;2024-02-21T06:42:13;13.68;;;6.30;;
23236;SDS011;11787;52.018;8.570;2024-02-21T06:44:38;16.13;;;5.70;;
23236;SDS011;11787;52.018;8.570;2024-02-21T06:47:05;11.70;;;5.85;;
23236;SDS011;11787;52.018;8.570;2024-02-21T06:49:32;11.35;;;5.28;;
23236;SDS011;11787;52.018;8.570;2024-02-21T06:51:58;6.15;;;3.35;;
23236;SDS011;11787;52.018;8.570;2024-02-21T06:54:23;15.20;;;5.20;;
23236;SDS011;11787;52.018;8.570;2024-02-21T06:56:49;10.95;;;4.00;;
23236;SDS011;11787;52.018;8.570;2024-02-21T06:59:14;7.93;;;3.97;;
23236;SDS011;11787;52.018;8.570;2024-02-21T07:01:44;12.27;;;4.30;;
23236;SDS011;11787;52.018;8.570;2024-02-21T07:04:13;8.57;;;3.15;;
23236;SDS011;11787;52.018;8.570;2024-02-21T07:06:39;9.02;;;4.43;;
23236;SDS011;11787;52.018;8.570;2024-02-21T07:09:05;8.85;;;3.25;;
23236;SDS011;11787;52.018;8.570;2024-02-21T07:11:31;10.75;;;3.88;;
23236;SDS011;11787;52.018;8.570;2024-02-21T07:13:56;8.40;;;3.50;;
23236;SDS011;11787;52.018;8.570;2024-02-21T07:16:22;9.82;;;3.53;;
23236;SDS011;11787;52.018;8.570;2024-02-21T07:18:47;8.82;;;3.90;;
23236;SDS011;11787;52.018;8.570;2024-02-21T07:21:13;11.05;;;4.05;;
23236;SDS011;11787;52.018;8.570;2024-02-21T07:23:40;6.20;;;3.08;;
23236;SDS011;11787;52.018;8.570;2024-02-21T07:26:07;6.22;;;3.45;;
23236;SDS011;11787;52.018;8.570;2024-02-21T07:28:32;6.72;;;3.40;;
23236;SDS011;11787;52.018;8.570;2024-02-21T07:31:01;6.85;;;3.58;;
23236;SDS011;11787;52.018;8.570;2024-02-21T07:33:27;6.35;;;3.30;;
23236;SDS011;11787;52.018;8.570;2024-02-21T07:35:53;6.28;;;3.15;;
23236;SDS011;11787;52.018;8.570;2024-02-21T07:38:19;9.77;;;4.03;;
23236;SDS011;11787;52.018;8.570;2024-02-21T07:40:45;6.60;;;2.90;;
23236;SDS011;11787;52.018;8.570;2024-02-21T07:43:10;7.60;;;3.03;;
23236;SDS011;11787;52.018;8.570;2024-02-21T07:45:36;6.75;;;3.10;;
23236;SDS011;11787;52.018;8.570;2024-02-21T07:48:02;7.82;;;3.25;;
23236;SDS011;11787;52.018;8.570;2024-02-21T07:50:27;8.85;;;2.85;;
23236;SDS011;11787;52.018;8.570;2024-02-21T07:52:53;7.65;;;2.63;;
23236;SDS011;11787;52.018;8.570;2024-02-21T07:55:19;5.78;;;2.75;;
23236;SDS011;11787;52.018;8.570;2024-02-21T07:57:44;8.43;;;3.00;;
23236;SDS011;11787;52.018;8.570;2024-02-21T08:00:10;6.53;;;2.72;;
23236;SDS011;11787;52.018;8.570;2024-02-21T08:02:42;7.45;;;3.17;;
23236;SDS011;11787;52.018;8.570;2024-02-21T08:05:08;8.43;;;3.15;;
23236;SDS011;11787;52.018;8.570;2024-02-21T08:07:34;5.38;;;2.88;;
23236;SDS011;11787;52.018;8.570;2024-02-21T08:10:00;10.40;;;3.17;;
23236;SDS011;11787;52.018;8.570;2024-02-21T08:12:25;5.40;;;2.85;;
23236;SDS011;11787;52.018;8.570;2024-02-21T08:14:52;10.05;;;2.88;;
23236;SDS011;11787;52.018;8.570;2024-02-21T08:17:17;6.03;;;2.65;;
23236;SDS011;11787;52.018;8.570;2024-02-21T08:19:43;4.78;;;2.50;;
23236;SDS011;11787;52.018;8.570;2024-02-21T08:22:08;5.72;;;3.03;;
23236;SDS011;11787;52.018;8.570;2024-02-21T08:24:34;13.45;;;3.33;;
23236;SDS011;11787;52.018;8.570;2024-02-21T08:26:59;6.10;;;2.55;;
23236;SDS011;11787;52.018;8.570;2024-02-21T08:29:25;10.50;;;3.20;;
23236;SDS011;11787;52.018;8.570;2024-02-21T08:31:50;5.72;;;2.65;;
23236;SDS011;11787;52.018;8.570;2024-02-21T08:34:18;10.82;;;3.58;;
23236;SDS011;11787;52.018;8.570;2024-02-21T08:36:44;9.00;;;2.85;;
23236;SDS011;11787;52.018;8.570;2024-02-21T08:39:09;9.82;;;3.25;;
23236;SDS011;11787;52.018;8.570;2024-02-21T08:41:36;5.55;;;2.10;;
23236;SDS011;11787;52.018;8.570;2024-02-21T08:44:01;4.57;;;2.50;;
23236;SDS011;11787;52.018;8.570;2024-02-21T08:46:28;5.97;;;2.22;;
23236;SDS011;11787;52.018;8.570;2024-02-21T08:48:53;10.65;;;2.65;;
23236;SDS011;11787;52.018;8.570;2024-02-21T08:51:19;6.05;;;2.97;;
23236;SDS011;11787;52.018;8.570;2024-02-21T08:53:45;6.63;;;2.47;;
23236;SDS011;11787;52.018;8.570;2024-02-21T08:56:11;7.20;;;2.55;;
23236;SDS011;11787;52.018;8.570;2024-02-21T08:58:38;8.95;;;2.10;;
23236;SDS011;11787;52.018;8.570;2024-02-21T09:01:04;6.18;;;2.30;;
23236;SDS011;11787;52.018;8.570;2024-02-21T09:03:32;4.32;;;2.33;;
23236;SDS011;11787;52.018;8.570;2024-02-21T09:05:58;6.38;;;2.10;;
23236;SDS011;11787;52.018;8.570;2024-02-21T09:08:25;5.63;;;2.25;;
23236;SDS011;11787;52.018;8.570;2024-02-21T09:10:51;4.50;;;1.90;;
23236;SDS011;11787;52.018;8.570;2024-02-21T09:13:17;5.78;;;2.70;;
23236;SDS011;11787;52.018;8.570;2024-02-21T09:15:42;7.30;;;2.75;;
23236;SDS011;11787;52.018;8.570;2024-02-21T09:18:08;5.95;;;2.30;;
23236;SDS011;11787;52.018;8.570;2024-02-21T09:20:34;9.43;;;2.10;;
23236;SDS011;11787;52.018;8.570;2024-02-21T09:23:00;7.03;;;2.25;;
23236;SDS011;11787;52.018;8.570;2024-02-21T09:25:25;9.25;;;2.28;;
23236;SDS011;11787;52.018;8.570;2024-02-21T09:27:51;7.45;;;2.05;;
23236;SDS011;11787;52.018;8.570;2024-02-21T09:30:18;3.08;;;1.83;;
23236;SDS011;11787;52.018;8.570;2024-02-21T09:32:44;5.95;;;2.20;;
23236;SDS011;11787;52.018;8.570;2024-02-21T09:35:09;4.40;;;2.00;;
23236;SDS011;11787;52.018;8.570;2024-02-21T09:37:35;4.90;;;1.92;;
23236;SDS011;11787;52.018;8.570;2024-02-21T09:40:01;3.28;;;1.67;;
23236;SDS011;11787;52.018;8.570;2024-02-21T09:42:40;3.03;;;1.90;;
23236;SDS011;11787;52.018;8.570;2024-02-21T09:45:22;3.60;;;2.22;;
23236;SDS011;11787;52.018;8.570;2024-02-21T09:50:31;6.47;;;2.22;;
23236;SDS011;11787;52.018;8.570;2024-02-21T09:52:59;3.92;;;1.75;;
23236;SDS011;11787;52.018;8.570;2024-02-21T09:55:27;8.18;;;1.88;;
23236;SDS011;11787;52.018;8.570;2024-02-21T09:57:57;2.97;;;1.73;;
23236;SDS011;11787;52.018;8.570;2024-02-21T10:00:24;5.60;;;1.55;;
23236;SDS011;11787;52.018;8.570;2024-02-21T10:02:49;2.72;;;1.33;;
23236;SDS011;11787;52.018;8.570;2024-02-21T10:05:15;3.83;;;2.08;;
23236;SDS011;11787;52.018;8.570;2024-02-21T10:07:42;10.88;;;2.42;;
23236;SDS011;11787;52.018;8.570;2024-02-21T10:10:09;3.15;;;1.73;;
23236;SDS011;11787;52.018;8.570;2024-02-21T10:12:34;5.53;;;1.80;;
23236;SDS011;11787;52.018;8.570;2024-02-21T10:15:01;4.00;;;1.58;;
23236;SDS011;11787;52.018;8.570;2024-02-21T10:17:26;4.47;;;2.03;;
23236;SDS011;11787;52.018;8.570;2024-02-21T10:19:52;6.72;;;1.70;;
23236;SDS011;11787;52.018;8.570;2024-02-21T10:22:17;4.15;;;2.13;;
23236;SDS011;11787;52.018;8.570;2024-02-21T10:24:45;5.75;;;2.00;;
23236;SDS011;11787;52.018;8.570;2024-02-21T10:27:11;4.05;;;1.70;;
23236;SDS011;11787;52.018;8.570;2024-02-21T10:29:37;4.40;;;2.15;;
23236;SDS011;11787;52.018;8.570;2024-02-21T10:32:13;3.17;;;1.70;;
23236;SDS011;11787;52.018;8.570;2024-02-21T10:34:41;2.83;;;1.65;;
23236;SDS011;11787;52.018;8.570;2024-02-21T10:37:08;5.88;;;1.83;;
23236;SDS011;11787;52.018;8.570;2024-02-21T10:39:37;5.10;;;2.30;;
23236;SDS011;11787;52.018;8.570;2024-02-21T10:42:03;3.95;;;1.60;;
23236;SDS011;11787;52.018;8.570;2024-02-21T10:44:30;4.22;;;1.83;;
23236;SDS011;11787;52.018;8.570;2024-02-21T10:46:57;4.63;;;2.03;;
23236;SDS011;11787;52.018;8.570;2024-02-21T10:49:24;12.95;;;3.47;;
23236;SDS011;11787;52.018;8.570;2024-02-21T10:51:57;4.93;;;2.28;;
23236;SDS011;11787;52.018;8.570;2024-02-21T10:54:56;4.88;;;2.83;;
23236;SDS011;11787;52.018;8.570;2024-02-21T10:57:28;6.13;;;2.60;;
23236;SDS011;11787;52.018;8.570;2024-02-21T10:59:56;5.78;;;2.30;;
23236;SDS011;11787;52.018;8.570;2024-02-21T11:02:24;6.07;;;2.90;;
23236;SDS011;11787;52.018;8.570;2024-02-21T11:04:51;8.25;;;3.22;;
23236;SDS011;11787;52.018;8.570;2024-02-21T11:07:18;10.73;;;3.00;;
23236;SDS011;11787;52.018;8.570;2024-02-21T11:09:51;9.10;;;2.75;;
23236;SDS011;11787;52.018;8.570;2024-02-21T11:12:20;6.90;;;3.10;;
23236;SDS011;11787;52.018;8.570;2024-02-21T11:14:46;5.65;;;2.22;;
23236;SDS011;11787;52.018;8.570;2024-02-21T11:17:18;9.00;;;3.13;;
23236;SDS011;11787;52.018;8.570;2024-02-21T11:19:46;10.10;;;3.65;;
23236;SDS011;11787;52.018;8.570;2024-02-21T11:22:19;6.07;;;2.83;;
23236;SDS011;11787;52.018;8.570;2024-02-21T11:24:49;6.32;;;2.85;;
23236;SDS011;11787;52.018;8.570;2024-02-21T11:27:15;5.22;;;3.05;;
23236;SDS011;11787;52.018;8.570;2024-02-21T11:29:57;9.05;;;3.15;;
23236;SDS011;11787;52.018;8.570;2024-02-21T11:32:24;11.25;;;3.72;;
23236;SDS011;11787;52.018;8.570;2024-02-21T11:34:57;7.03;;;2.92;;
23236;SDS011;11787;52.018;8.570;2024-02-21T11:37:32;6.20;;;3.15;;
23236;SDS011;11787;52.018;8.570;2024-02-21T11:39:59;6.25;;;2.92;;
23236;SDS011;11787;52.018;8.570;2024-02-21T11:42:25;5.47;;;3.00;;
23236;SDS011;11787;52.018;8.570;2024-02-21T11:44:52;7.80;;;2.58;;
23236;SDS011;11787;52.018;8.570;2024-02-21T11:47:18;8.60;;;3.45;;
23236;SDS011;11787;52.018;8.570;2024-02-21T11:49:47;5.35;;;2.50;;
23236;SDS011;11787;52.018;8.570;2024-02-21T11:52:15;7.10;;;2.90;;
23236;SDS011;11787;52.018;8.570;2024-02-21T11:54:43;4.57;;;2.85;;
23236;SDS011;11787;52.018;8.570;2024-02-21T11:57:10;11.90;;;3.35;;
23236;SDS011;11787;52.018;8.570;2024-02-21T11:59:39;5.80;;;2.22;;
23236;SDS011;11787;52.018;8.570;2024-02-21T12:02:05;4.80;;;2.83;;
23236;SDS011;11787;52.018;8.570;2024-02-21T12:04:32;5.65;;;2.53;;
23236;SDS011;11787;52.018;8.570;2024-02-21T12:06:58;5.90;;;3.00;;
23236;SDS011;11787;52.018;8.570;2024-02-21T12:09:24;5.38;;;2.53;;
23236;SDS011;11787;52.018;8.570;2024-02-21T12:12:03;8.05;;;2.60;;
23236;SDS011;11787;52.018;8.570;2024-02-21T12:14:30;7.50;;;2.33;;
23236;SDS011;11787;52.018;8.570;2024-02-21T12:16:56;6.40;;;2.72;;
23236;SDS011;11787;52.018;8.570;2024-02-21T12:19:23;6.50;;;2.67;;
23236;SDS011;11787;52.018;8.570;2024-02-21T12:21:48;5.78;;;2.55;;
23236;SDS011;11787;52.018;8.570;2024-02-21T12:24:23;3.75;;;1.90;;
23236;SDS011;11787;52.018;8.570;2024-02-21T12:26:50;5.25;;;2.10;;
23236;SDS011;11787;52.018;8.570;2024-02-21T12:29:17;7.63;;;2.00;;
23236;SDS011;11787;52.018;8.570;2024-02-21T12:31:43;10.27;;;2.40;;
23236;SDS011;11787;52.018;8.570;2024-02-21T12:34:09;4.32;;;1.85;;
23236;SDS011;11787;52.018;8.570;2024-02-21T12:36:36;6.05;;;1.85;;
23236;SDS011;11787;52.018;8.570;2024-02-21T12:39:09;5.50;;;1.50;;
23236;SDS011;11787;52.018;8.570;2024-02-21T12:41:35;2.33;;;1.30;;
23236;SDS011;11787;52.018;8.570;2024-02-21T12:44:04;4.35;;;2.08;;
23236;SDS011;11787;52.018;8.570;2024-02-21T12:46:32;3.65;;;1.48;;
23236;SDS011;11787;52.018;8.570;2024-02-21T12:49:01;8.50;;;2.50;;
23236;SDS011;11787;52.018;8.570;2024-02-21T12:51:27;6.85;;;2.25;;
23236;SDS011;11787;52.018;8.570;2024-02-21T12:53:52;5.75;;;2.90;;
23236;SDS011;11787;52.018;8.570;2024-02-21T12:56:18;6.05;;;2.40;;
23236;SDS011;11787;52.018;8.570;2024-02-21T12:58:43;6.13;;;2.78;;
23236;SDS011;11787;52.018;8.570;2024-02-21T13:01:09;6.60;;;2.58;;
23236;SDS011;11787;52.018;8.570;2024-02-21T13:03:35;5.40;;;2.25;;
23236;SDS011;11787;52.018;8.570;2024-02-21T13:06:01;5.80;;;2.72;;
23236;SDS011;11787;52.018;8.570;2024-02-21T13:08:26;7.90;;;3.13;;
23236;SDS011;11787;52.018;8.570;2024-02-21T13:10:52;4.10;;;2.05;;
23236;SDS011;11787;52.018;8.570;2024-02-21T13:13:18;6.80;;;3.17;;
23236;SDS011;11787;52.018;8.570;2024-02-21T13:15:43;7.28;;;2.53;;
23236;SDS011;11787;52.018;8.570;2024-02-21T13:18:09;6.50;;;2.40;;
23236;SDS011;11787;52.018;8.570;2024-02-21T13:20:35;5.57;;;2.15;;
23236;SDS011;11787;52.018;8.570;2024-02-21T13:23:01;8.07;;;2.40;;
23236;SDS011;11787;52.018;8.570;2024-02-21T13:25:27;4.15;;;1.70;;
23236;SDS011;11787;52.018;8.570;2024-02-21T13:27:53;6.60;;;1.92;;
23236;SDS011;11787;52.018;8.570;2024-02-21T13:30:18;10.07;;;2.13;;
23236;SDS011;11787;52.018;8.570;2024-02-21T13:32:44;6.20;;;1.73;;
23236;SDS011;11787;52.018;8.570;2024-02-21T13:35:13;5.10;;;1.77;;
23236;SDS011;11787;52.018;8.570;2024-02-21T13:37:40;7.03;;;1.80;;
23236;SDS011;11787;52.018;8.570;2024-02-21T13:40:06;5.55;;;1.60;;
23236;SDS011;11787;52.018;8.570;2024-02-21T13:42:34;3.67;;;1.60;;
23236;SDS011;11787;52.018;8.570;2024-02-21T13:45:00;3.63;;;2.15;;
23236;SDS011;11787;52.018;8.570;2024-02-21T13:47:26;4.13;;;1.50;;
23236;SDS011;11787;52.018;8.570;2024-02-21T13:49:52;4.63;;;1.45;;
23236;SDS011;11787;52.018;8.570;2024-02-21T13:52:17;5.63;;;1.92;;
23236;SDS011;11787;52.018;8.570;2024-02-21T13:54:46;4.47;;;1.75;;
23236;SDS011;11787;52.018;8.570;2024-02-21T13:57:11;9.38;;;2.40;;
23236;SDS011;11787;52.018;8.570;2024-02-21T13:59:37;4.00;;;1.40;;
23236;SDS011;11787;52.018;8.570;2024-02-21T14:02:04;3.30;;;1.27;;
23236;SDS011;11787;52.018;8.570;2024-02-21T14:04:32;3.97;;;2.17;;
23236;SDS011;11787;52.018;8.570;2024-02-21T14:06:58;6.72;;;2.05;;
23236;SDS011;11787;52.018;8.570;2024-02-21T14:09:24;3.40;;;1.83;;
23236;SDS011;11787;52.018;8.570;2024-02-21T14:11:49;2.35;;;1.25;;
23236;SDS011;11787;52.018;8.570;2024-02-21T14:14:15;4.43;;;1.58;;
23236;SDS011;11787;52.018;8.570;2024-02-21T14:16:41;2.15;;;1.15;;
23236;SDS011;11787;52.018;8.570;2024-02-21T14:19:06;7.28;;;1.70;;
23236;SDS011;11787;52.018;8.570;2024-02-21T14:21:33;5.20;;;1.52;;
23236;SDS011;11787;52.018;8.570;2024-02-21T14:24:02;4.03;;;1.13;;
23236;SDS011;11787;52.018;8.570;2024-02-21T14:26:28;4.57;;;1.60;;
23236;SDS011;11787;52.018;8.570;2024-02-21T14:28:56;3.78;;;1.17;;
23236;SDS011;11787;52.018;8.570;2024-02-21T14:31:22;2.83;;;1.35;;
23236;SDS011;11787;52.018;8.570;2024-02-21T14:33:47;2.78;;;1.17;;
23236;SDS011;11787;52.018;8.570;2024-02-21T14:36:13;3.35;;;1.45;;
23236;SDS011;11787;52.018;8.570;2024-02-21T14:38:40;5.07;;;1.10;;
23236;SDS011;11787;52.018;8.570;2024-02-21T14:41:06;3.33;;;1.10;;
23236;SDS011;11787;52.018;8.570;2024-02-21T14:43:32;4.07;;;1.67;;
23236;SDS011;11787;52.018;8.570;2024-02-21T14:45:59;5.28;;;1.40;;
23236;SDS011;11787;52.018;8.570;2024-02-21T14:48:25;1.17;;;1.02;;
23236;SDS011;11787;52.018;8.570;2024-02-21T14:50:51;3.83;;;1.35;;
23236;SDS011;11787;52.018;8.570;2024-02-21T14:53:16;4.20;;;1.65;;
23236;SDS011;11787;52.018;8.570;2024-02-21T14:55:43;5.45;;;1.88;;
23236;SDS011;11787;52.018;8.570;2024-02-21T14:58:08;5.05;;;1.92;;
23236;SDS011;11787;52.018;8.570;2024-02-21T15:00:34;3.25;;;1.40;;
23236;SDS011;11787;52.018;8.570;2024-02-21T15:03:00;3.28;;;1.08;;
23236;SDS011;11787;52.018;8.570;2024-02-21T15:05:25;3.08;;;1.20;;
23236;SDS011;11787;52.018;8.570;2024-02-21T15:07:51;8.10;;;1.13;;
23236;SDS011;11787;52.018;8.570;2024-02-21T15:10:17;1.88;;;1.30;;
23236;SDS011;11787;52.018;8.570;2024-02-21T15:12:44;4.50;;;1.30;;
23236;SDS011;11787;52.018;8.570;2024-02-21T15:15:10;4.88;;;1.27;;
23236;SDS011;11787;52.018;8.570;2024-02-21T15:17:36;2.17;;;1.20;;
23236;SDS011;11787;52.018;8.570;2024-02-21T15:20:01;3.60;;;0.95;;
23236;SDS011;11787;52.018;8.570;2024-02-21T15:22:29;8.10;;;1.55;;
23236;SDS011;11787;52.018;8.570;2024-02-21T15:24:55;3.45;;;1.40;;
23236;SDS011;11787;52.018;8.570;2024-02-21T15:27:20;3.65;;;1.30;;
23236;SDS011;11787;52.018;8.570;2024-02-21T15:29:46;1.67;;;0.88;;
23236;SDS011;11787;52.018;8.570;2024-02-21T15:32:12;4.30;;;1.27;;
23236;SDS011;11787;52.018;8.570;2024-02-21T15:34:37;7.78;;;1.65;;
23236;SDS011;11787;52.018;8.570;2024-02-21T15:37:03;4.72;;;1.20;;
23236;SDS011;11787;52.018;8.570;2024-02-21T15:39:29;3.38;;;1.33;;
23236;SDS011;11787;52.018;8.570;2024-02-21T15:41:55;4.32;;;1.50;;
23236;SDS011;11787;52.018;8.570;2024-02-21T15:44:23;2.75;;;1.00;;
23236;SDS011;11787;52.018;8.570;2024-02-21T15:46:49;5.30;;;1.27;;
23236;SDS011;11787;52.018;8.570;2024-02-21T15:49:16;2.13;;;0.98;;
23236;SDS011;11787;52.018;8.570;2024-02-21T15:51:42;1.83;;;1.08;;
23236;SDS011;11787;52.018;8.570;2024-02-21T15:54:08;2.25;;;1.48;;
23236;SDS011;11787;52.018;8.570;2024-02-21T15:56:34;4.75;;;1.70;;
23236;SDS011;11787;52.018;8.570;2024-02-21T15:59:00;3.15;;;1.15;;
23236;SDS011;11787;52.018;8.570;2024-02-21T16:01:25;3.35;;;1.70;;
23236;SDS011;11787;52.018;8.570;2024-02-21T16:03:51;3.35;;;1.35;;
23236;SDS011;11787;52.018;8.570;2024-02-21T16:06:20;6.15;;;0.98;;
23236;SDS011;11787;52.018;8.570;2024-02-21T16:08:46;5.85;;;1.30;;
23236;SDS011;11787;52.018;8.570;2024-02-21T16:11:15;9.05;;;2.08;;
23236;SDS011;11787;52.018;8.570;2024-02-21T16:13:41;3.85;;;1.20;;
23236;SDS011;11787;52.018;8.570;2024-02-21T16:16:08;3.65;;;1.10;;
23236;SDS011;11787;52.018;8.570;2024-02-21T16:18:34;5.13;;;0.77;;
23236;SDS011;11787;52.018;8.570;2024-02-21T16:21:00;3.25;;;1.25;;
23236;SDS011;11787;52.018;8.570;2024-02-21T16:23:25;1.70;;;1.02;;
23236;SDS011;11787;52.018;8.570;2024-02-21T16:25:51;4.47;;;1.08;;
23236;SDS011;11787;52.018;8.570;2024-02-21T16:28:17;4.13;;;1.25;;
23236;SDS011;11787;52.018;8.570;2024-02-21T16:30:43;5.05;;;1.55;;
23236;SDS011;11787;52.018;8.570;2024-02-21T16:33:08;8.82;;;1.48;;
23236;SDS011;11787;52.018;8.570;2024-02-21T16:35:35;2.40;;;1.40;;
23236;SDS011;11787;52.018;8.570;2024-02-21T16:38:01;3.53;;;1.05;;
23236;SDS011;11787;52.018;8.570;2024-02-21T16:40:29;4.22;;;1.33;;
23236;SDS011;11787;52.018;8.570;2024-02-21T16:42:54;5.82;;;1.20;;
23236;SDS011;11787;52.018;8.570;2024-02-21T16:45:20;4.00;;;1.45;;
23236;SDS011;11787;52.018;8.570;2024-02-21T16:47:46;3.05;;;1.33;;
23236;SDS011;11787;52.018;8.570;2024-02-21T16:50:11;6.70;;;1.88;;
23236;SDS011;11787;52.018;8.570;2024-02-21T16:52:37;7.43;;;1.30;;
23236;SDS011;11787;52.018;8.570;2024-02-21T16:55:05;3.83;;;1.70;;
23236;SDS011;11787;52.018;8.570;2024-02-21T16:57:32;2.65;;;1.27;;
23236;SDS011;11787;52.018;8.570;2024-02-21T16:59:58;6.05;;;1.40;;
23236;SDS011;11787;52.018;8.570;2024-02-21T17:02:25;4.47;;;1.50;;
23236;SDS011;11787;52.018;8.570;2024-02-21T17:04:50;4.55;;;1.33;;
23236;SDS011;11787;52.018;8.570;2024-02-21T17:07:18;3.47;;;1.10;;
23236;SDS011;11787;52.018;8.570;2024-02-21T17:09:45;4.47;;;1.52;;
23236;SDS011;11787;52.018;8.570;2024-02-21T17:12:11;2.90;;;1.15;;
23236;SDS011;11787;52.018;8.570;2024-02-21T17:14:37;2.78;;;1.10;;
23236;SDS011;11787;52.018;8.570;2024-02-21T17:17:03;4.50;;;1.67;;
23236;SDS011;11787;52.018;8.570;2024-02-21T17:19:29;4.47;;;1.50;;
23236;SDS011;11787;52.018;8.570;2024-02-21T17:21:55;4.68;;;1.38;;
23236;SDS011;11787;52.018;8.570;2024-02-21T17:24:20;2.20;;;1.08;;
23236;SDS011;11787;52.018;8.570;2024-02-21T17:26:46;6.85;;;1.20;;
23236;SDS011;11787;52.018;8.570;2024-02-21T17:29:11;5.93;;;1.85;;
23236;SDS011;11787;52.018;8.570;2024-02-21T17:31:38;3.47;;;1.42;;
23236;SDS011;11787;52.018;8.570;2024-02-21T17:34:04;2.80;;;1.10;;
23236;SDS011;11787;52.018;8.570;2024-02-21T17:36:29;8.02;;;1.73;;
23236;SDS011;11787;52.018;8.570;2024-02-21T17:38:55;6.78;;;1.80;;
23236;SDS011;11787;52.018;8.570;2024-02-21T17:41:20;6.85;;;1.42;;
23236;SDS011;11787;52.018;8.570;2024-02-21T17:43:46;3.60;;;1.60;;
23236;SDS011;11787;52.018;8.570;2024-02-21T17:46:12;5.85;;;1.17;;
23236;SDS011;11787;52.018;8.570;2024-02-21T17:48:37;4.03;;;1.52;;
23236;SDS011;11787;52.018;8.570;2024-02-21T17:51:03;8.02;;;1.45;;
23236;SDS011;11787;52.018;8.570;2024-02-21T17:53:29;3.10;;;1.45;;
23236;SDS011;11787;52.018;8.570;2024-02-21T17:55:55;4.78;;;1.13;;
23236;SDS011;11787;52.018;8.570;2024-02-21T17:58:21;2.03;;;1.02;;
23236;SDS011;11787;52.018;8.570;2024-02-21T18:00:47;5.65;;;1.58;;
23236;SDS011;11787;52.018;8.570;2024-02-21T18:03:12;3.80;;;1.25;;
23236;SDS011;11787;52.018;8.570;2024-02-21T18:05:40;6.57;;;1.42;;
23236;SDS011;11787;52.018;8.570;2024-02-21T18:08:06;3.35;;;1.23;;
23236;SDS011;11787;52.018;8.570;2024-02-21T18:10:34;1.52;;;0.88;;
23236;SDS011;11787;52.018;8.570;2024-02-21T18:13:03;1.40;;;0.88;;
23236;SDS011;11787;52.018;8.570;2024-02-21T18:15:31;4.15;;;1.05;;
23236;SDS011;11787;52.018;8.570;2024-02-21T18:17:58;3.05;;;0.90;;
23236;SDS011;11787;52.018;8.570;2024-02-21T18:20:24;3.53;;;0.90;;
23236;SDS011;11787;52.018;8.570;2024-02-21T18:22:49;2.80;;;0.85;;
23236;SDS011;11787;52.018;8.570;2024-02-21T18:25:16;1.20;;;0.77;;
23236;SDS011;11787;52.018;8.570;2024-02-21T18:27:42;5.18;;;1.23;;
23236;SDS011;11787;52.018;8.570;2024-02-21T18:30:08;1.35;;;0.70;;
23236;SDS011;11787;52.018;8.570;2024-02-21T18:32:34;5.20;;;1.20;;
23236;SDS011;11787;52.018;8.570;2024-02-21T18:35:00;1.48;;;0.63;;
23236;SDS011;11787;52.018;8.570;2024-02-21T18:37:26;2.63;;;0.75;;
23236;SDS011;11787;52.018;8.570;2024-02-21T18:39:52;1.48;;;0.73;;
23236;SDS011;11787;52.018;8.570;2024-02-21T18:42:18;4.03;;;1.38;;
23236;SDS011;11787;52.018;8.570;2024-02-21T18:44:43;6.20;;;0.95;;
23236;SDS011;11787;52.018;8.570;2024-02-21T18:47:10;4.30;;;0.95;;
23236;SDS011;11787;52.018;8.570;2024-02-21T18:49:37;2.33;;;0.80;;
23236;SDS011;11787;52.018;8.570;2024-02-21T18:52:02;2.45;;;1.00;;
23236;SDS011;11787;52.018;8.570;2024-02-21T18:54:28;4.28;;;1.33;;
23236;SDS011;11787;52.018;8.570;2024-02-21T18:56:54;1.58;;;0.70;;
23236;SDS011;11787;52.018;8.570;2024-02-21T18:59:19;3.83;;;0.82;;
23236;SDS011;11787;52.018;8.570;2024-02-21T19:01:45;1.33;;;0.65;;
23236;SDS011;11787;52.018;8.570;2024-02-21T19:04:10;1.50;;;0.70;;
23236;SDS011;11787;52.018;8.570;2024-02-21T19:06:36;1.58;;;1.40;;
23236;SDS011;11787;52.018;8.570;2024-02-21T19:09:04;2.08;;;0.75;;
23236;SDS011;11787;52.018;8.570;2024-02-21T19:11:30;2.88;;;1.20;;
23236;SDS011;11787;52.018;8.570;2024-02-21T19:13:55;3.00;;;0.80;;
23236;SDS011;11787;52.018;8.570;2024-02-21T19:16:21;2.95;;;0.80;;
23236;SDS011;11787;52.018;8.570;2024-02-21T19:18:47;3.35;;;0.70;;
23236;SDS011;11787;52.018;8.570;2024-02-21T19:21:12;1.92;;;0.70;;
23236;SDS011;11787;52.018;8.570;2024-02-21T19:23:38;2.58;;;1.17;;
23236;SDS011;11787;52.018;8.570;2024-02-21T19:26:07;2.58;;;0.63;;
23236;SDS011;11787;52.018;8.570;2024-02-21T19:28:33;1.95;;;0.77;;
23236;SDS011;11787;52.018;8.570;2024-02-21T19:31:00;3.05;;;0.70;;
23236;SDS011;11787;52.018;8.570;2024-02-21T19:33:28;3.17;;;1.00;;
23236;SDS011;11787;52.018;8.570;2024-02-21T19:35:54;2.38;;;1.20;;
23236;SDS011;11787;52.018;8.570;2024-02-21T19:38:20;3.45;;;1.13;;
23236;SDS011;11787;52.018;8.570;2024-02-21T19:40:47;1.15;;;0.75;;
23236;SDS011;11787;52.018;8.570;2024-02-21T19:43:14;2.22;;;1.05;;
23236;SDS011;11787;52.018;8.570;2024-02-21T19:45:39;2.22;;;0.80;;
23236;SDS011;11787;52.018;8.570;2024-02-21T19:48:05;2.85;;;0.77;;
23236;SDS011;11787;52.018;8.570;2024-02-21T19:50:32;2.42;;;1.10;;
23236;SDS011;11787;52.018;8.570;2024-02-21T19:52:58;4.60;;;1.25;;
23236;SDS011;11787;52.018;8.570;2024-02-21T19:55:25;4.03;;;1.02;;
23236;SDS011;11787;52.018;8.570;2024-02-21T19:57:52;3.83;;;1.00;;
23236;SDS011;11787;52.018;8.570;2024-02-21T20:00:19;2.15;;;1.27;;
23236;SDS011;11787;52.018;8.570;2024-02-21T20:02:45;2.03;;;0.90;;
23236;SDS011;11787;52.018;8.570;2024-02-21T20:05:11;2.42;;;0.95;;
23236;SDS011;11787;52.018;8.570;2024-02-21T20:07:37;5.28;;;1.73;;
23236;SDS011;11787;52.018;8.570;2024-02-21T20:10:04;3.15;;;1.45;;
23236;SDS011;11787;52.018;8.570;2024-02-21T20:12:32;3.95;;;1.30;;
23236;SDS011;11787;52.018;8.570;2024-02-21T20:15:05;2.38;;;1.17;;
23236;SDS011;11787;52.018;8.570;2024-02-21T20:17:32;2.03;;;1.13;;
23236;SDS011;11787;52.018;8.570;2024-02-21T20:19:57;3.85;;;1.20;;
23236;SDS011;11787;52.018;8.570;2024-02-21T20:22:23;3.13;;;1.10;;
23236;SDS011;11787;52.018;8.570;2024-02-21T20:24:49;3.28;;;1.38;;
23236;SDS011;11787;52.018;8.570;2024-02-21T20:27:15;3.00;;;0.95;;
23236;SDS011;11787;52.018;8.570;2024-02-21T20:29:40;6.32;;;1.45;;
23236;SDS011;11787;52.018;8.570;2024-02-21T20:32:06;3.03;;;1.05;;
23236;SDS011;11787;52.018;8.570;2024-02-21T20:34:31;3.30;;;1.10;;
23236;SDS011;11787;52.018;8.570;2024-02-21T20:36:58;2.53;;;1.08;;
23236;SDS011;11787;52.018;8.570;2024-02-21T20:39:24;1.52;;;0.90;;
23236;SDS011;11787;52.018;8.570;2024-02-21T20:41:50;1.80;;;1.13;;